sensor_id;sensor_type;location;lat;lon;timestamp;P1;durP1;ratioP1;P2;durP2;ratioP2
39490;SDS011;25175;50.140;18.990;2022-07-29T00:00:21;8.38;;;4.25;;
39490;SDS011;25175;50.140;18.990;2022-07-29T00:03:23;8.63;;;4.40;;
39490;SDS011;25175;50.140;18.990;2022-07-29T00:06:26;11.52;;;4.03;;
39490;SDS011;25175;50.140;18.990;2022-07-29T00:09:29;7.80;;;4.07;;
39490;SDS011;25175;50.140;18.990;2022-07-29T00:12:31;8.43;;;4.07;;
39490;SDS011;25175;50.140;18.990;2022-07-29T00:15:33;10.88;;;4.25;;
39490;SDS011;25175;50.140;18.990;2022-07-29T00:18:35;8.48;;;4.28;;
39490;SDS011;25175;50.140;18.990;2022-07-29T00:21:39;9.02;;;4.35;;
39490;SDS011;25175;50.140;18.990;2022-07-29T00:24:41;8.98;;;4.43;;
39490;SDS011;25175;50.140;18.990;2022-07-29T00:27:43;15.55;;;4.20;;
39490;SDS011;25175;50.140;18.990;2022-07-29T00:30:46;9.23;;;3.72;;
39490;SDS011;25175;50.140;18.990;2022-07-29T00:33:48;11.73;;;4.13;;
39490;SDS011;25175;50.140;18.990;2022-07-29T00:36:51;7.60;;;3.45;;
39490;SDS011;25175;50.140;18.990;2022-07-29T00:39:52;7.57;;;3.67;;
39490;SDS011;25175;50.140;18.990;2022-07-29T00:42:55;6.60;;;3.70;;
39490;SDS011;25175;50.140;18.990;2022-07-29T00:45:57;8.73;;;4.10;;
39490;SDS011;25175;50.140;18.990;2022-07-29T00:48:59;9.20;;;3.97;;
39490;SDS011;25175;50.140;18.990;2022-07-29T00:52:03;10.13;;;4.20;;
39490;SDS011;25175;50.140;18.990;2022-07-29T00:55:07;7.55;;;3.78;;
39490;SDS011;25175;50.140;18.990;2022-07-29T00:58:11;10.40;;;4.10;;
39490;SDS011;25175;50.140;18.990;2022-07-29T01:01:14;11.38;;;3.63;;
39490;SDS011;25175;50.140;18.990;2022-07-29T01:04:17;7.72;;;3.58;;
39490;SDS011;25175;50.140;18.990;2022-07-29T01:07:20;9.73;;;3.75;;
39490;SDS011;25175;50.140;18.990;2022-07-29T01:10:22;8.98;;;4.13;;
39490;SDS011;25175;50.140;18.990;2022-07-29T01:13:26;9.82;;;3.53;;
39490;SDS011;25175;50.140;18.990;2022-07-29T01:16:29;7.85;;;3.42;;
39490;SDS011;25175;50.140;18.990;2022-07-29T01:19:40;9.32;;;3.42;;
39490;SDS011;25175;50.140;18.990;2022-07-29T01:23:00;9.07;;;3.40;;
39490;SDS011;25175;50.140;18.990;2022-07-29T01:26:23;6.90;;;3.30;;
39490;SDS011;25175;50.140;18.990;2022-07-29T01:29:35;6.88;;;3.13;;
39490;SDS011;25175;50.140;18.990;2022-07-29T01:32:40;8.88;;;3.00;;
39490;SDS011;25175;50.140;18.990;2022-07-29T01:35:44;11.52;;;3.42;;
39490;SDS011;25175;50.140;18.990;2022-07-29T01:38:57;7.35;;;3.17;;
39490;SDS011;25175;50.140;18.990;2022-07-29T01:42:10;9.77;;;3.13;;
39490;SDS011;25175;50.140;18.990;2022-07-29T01:45:18;9.55;;;2.80;;
39490;SDS011;25175;50.140;18.990;2022-07-29T01:48:27;8.93;;;3.58;;
39490;SDS011;25175;50.140;18.990;2022-07-29T01:51:38;7.97;;;3.13;;
39490;SDS011;25175;50.140;18.990;2022-07-29T01:54:47;6.53;;;3.47;;
39490;SDS011;25175;50.140;18.990;2022-07-29T01:57:54;6.30;;;2.78;;
39490;SDS011;25175;50.140;18.990;2022-07-29T02:01:00;6.40;;;2.70;;
39490;SDS011;25175;50.140;18.990;2022-07-29T02:04:04;12.00;;;3.20;;
39490;SDS011;25175;50.140;18.990;2022-07-29T02:07:10;6.93;;;2.90;;
39490;SDS011;25175;50.140;18.990;2022-07-29T02:10:15;8.75;;;3.10;;
39490;SDS011;25175;50.140;18.990;2022-07-29T02:13:20;8.23;;;2.90;;
39490;SDS011;25175;50.140;18.990;2022-07-29T02:16:26;8.93;;;3.00;;
39490;SDS011;25175;50.140;18.990;2022-07-29T02:19:31;6.57;;;2.90;;
39490;SDS011;25175;50.140;18.990;2022-07-29T02:22:35;5.47;;;2.83;;
39490;SDS011;25175;50.140;18.990;2022-07-29T02:25:41;6.03;;;2.93;;
39490;SDS011;25175;50.140;18.990;2022-07-29T02:28:44;10.15;;;2.97;;
39490;SDS011;25175;50.140;18.990;2022-07-29T02:31:49;9.40;;;2.70;;
39490;SDS011;25175;50.140;18.990;2022-07-29T02:34:53;10.73;;;2.88;;
39490;SDS011;25175;50.140;18.990;2022-07-29T02:37:56;7.32;;;2.97;;
39490;SDS011;25175;50.140;18.990;2022-07-29T02:41:17;5.93;;;2.65;;
39490;SDS011;25175;50.140;18.990;2022-07-29T02:44:24;8.38;;;3.10;;
39490;SDS011;25175;50.140;18.990;2022-07-29T02:47:30;8.77;;;2.88;;
39490;SDS011;25175;50.140;18.990;2022-07-29T02:50:38;5.50;;;2.67;;
39490;SDS011;25175;50.140;18.990;2022-07-29T02:53:46;8.13;;;2.90;;
39490;SDS011;25175;50.140;18.990;2022-07-29T02:56:53;7.40;;;2.70;;
39490;SDS011;25175;50.140;18.990;2022-07-29T02:59:57;13.50;;;2.90;;
39490;SDS011;25175;50.140;18.990;2022-07-29T03:03:07;7.47;;;2.72;;
39490;SDS011;25175;50.140;18.990;2022-07-29T03:06:13;7.97;;;2.60;;
39490;SDS011;25175;50.140;18.990;2022-07-29T03:09:16;9.98;;;2.90;;
39490;SDS011;25175;50.140;18.990;2022-07-29T03:12:19;6.97;;;2.85;;
39490;SDS011;25175;50.140;18.990;2022-07-29T03:15:22;7.75;;;2.67;;
39490;SDS011;25175;50.140;18.990;2022-07-29T03:18:27;6.30;;;2.78;;
39490;SDS011;25175;50.140;18.990;2022-07-29T03:21:30;35.92;;;14.85;;
39490;SDS011;25175;50.140;18.990;2022-07-29T03:24:33;10.95;;;4.95;;
39490;SDS011;25175;50.140;18.990;2022-07-29T03:27:36;8.27;;;3.55;;
39490;SDS011;25175;50.140;18.990;2022-07-29T03:30:38;8.77;;;2.78;;
39490;SDS011;25175;50.140;18.990;2022-07-29T03:33:42;5.90;;;2.70;;
39490;SDS011;25175;50.140;18.990;2022-07-29T03:36:44;10.15;;;2.80;;
39490;SDS011;25175;50.140;18.990;2022-07-29T03:39:47;7.65;;;2.45;;
39490;SDS011;25175;50.140;18.990;2022-07-29T03:42:51;5.35;;;2.90;;
39490;SDS011;25175;50.140;18.990;2022-07-29T03:45:56;4.50;;;2.40;;
39490;SDS011;25175;50.140;18.990;2022-07-29T03:49:03;9.32;;;2.35;;
39490;SDS011;25175;50.140;18.990;2022-07-29T03:52:08;7.00;;;2.60;;
39490;SDS011;25175;50.140;18.990;2022-07-29T03:55:10;6.97;;;2.53;;
39490;SDS011;25175;50.140;18.990;2022-07-29T03:58:14;5.97;;;2.50;;
39490;SDS011;25175;50.140;18.990;2022-07-29T04:01:17;9.98;;;2.80;;
39490;SDS011;25175;50.140;18.990;2022-07-29T04:04:22;7.28;;;2.50;;
39490;SDS011;25175;50.140;18.990;2022-07-29T04:07:25;5.97;;;2.33;;
39490;SDS011;25175;50.140;18.990;2022-07-29T04:10:27;10.93;;;2.60;;
39490;SDS011;25175;50.140;18.990;2022-07-29T04:13:29;6.18;;;2.15;;
39490;SDS011;25175;50.140;18.990;2022-07-29T04:16:32;4.18;;;2.08;;
39490;SDS011;25175;50.140;18.990;2022-07-29T04:19:35;4.65;;;2.17;;
39490;SDS011;25175;50.140;18.990;2022-07-29T04:22:38;6.25;;;2.33;;
39490;SDS011;25175;50.140;18.990;2022-07-29T04:25:40;5.90;;;2.30;;
39490;SDS011;25175;50.140;18.990;2022-07-29T04:28:42;6.10;;;2.13;;
39490;SDS011;25175;50.140;18.990;2022-07-29T04:31:45;5.60;;;2.40;;
39490;SDS011;25175;50.140;18.990;2022-07-29T04:34:49;4.43;;;2.35;;
39490;SDS011;25175;50.140;18.990;2022-07-29T04:37:51;7.60;;;2.33;;
39490;SDS011;25175;50.140;18.990;2022-07-29T04:40:53;10.93;;;2.60;;
39490;SDS011;25175;50.140;18.990;2022-07-29T04:43:55;6.55;;;2.15;;
39490;SDS011;25175;50.140;18.990;2022-07-29T04:46:57;7.68;;;2.50;;
39490;SDS011;25175;50.140;18.990;2022-07-29T04:50:01;5.68;;;2.22;;
39490;SDS011;25175;50.140;18.990;2022-07-29T04:53:03;6.45;;;2.42;;
39490;SDS011;25175;50.140;18.990;2022-07-29T04:56:05;9.52;;;2.10;;
39490;SDS011;25175;50.140;18.990;2022-07-29T04:59:07;5.65;;;2.45;;
39490;SDS011;25175;50.140;18.990;2022-07-29T05:02:09;4.35;;;2.20;;
39490;SDS011;25175;50.140;18.990;2022-07-29T05:05:13;11.25;;;2.40;;
39490;SDS011;25175;50.140;18.990;2022-07-29T05:08:15;4.85;;;2.10;;
39490;SDS011;25175;50.140;18.990;2022-07-29T05:11:18;8.02;;;2.10;;
39490;SDS011;25175;50.140;18.990;2022-07-29T05:14:20;5.15;;;2.10;;
39490;SDS011;25175;50.140;18.990;2022-07-29T05:17:22;6.53;;;2.40;;
39490;SDS011;25175;50.140;18.990;2022-07-29T05:20:25;3.83;;;2.03;;
39490;SDS011;25175;50.140;18.990;2022-07-29T05:23:28;5.43;;;2.10;;
39490;SDS011;25175;50.140;18.990;2022-07-29T05:26:31;7.90;;;2.53;;
39490;SDS011;25175;50.140;18.990;2022-07-29T05:29:33;7.82;;;2.50;;
39490;SDS011;25175;50.140;18.990;2022-07-29T05:32:36;5.40;;;2.38;;
39490;SDS011;25175;50.140;18.990;2022-07-29T05:35:39;9.35;;;2.55;;
39490;SDS011;25175;50.140;18.990;2022-07-29T05:38:41;7.53;;;2.33;;
39490;SDS011;25175;50.140;18.990;2022-07-29T05:41:43;12.82;;;2.53;;
39490;SDS011;25175;50.140;18.990;2022-07-29T05:44:46;4.88;;;2.25;;
39490;SDS011;25175;50.140;18.990;2022-07-29T05:47:49;5.90;;;2.30;;
39490;SDS011;25175;50.140;18.990;2022-07-29T05:50:52;9.52;;;2.30;;
39490;SDS011;25175;50.140;18.990;2022-07-29T05:53:54;6.50;;;2.30;;
39490;SDS011;25175;50.140;18.990;2022-07-29T05:56:57;4.88;;;2.40;;
39490;SDS011;25175;50.140;18.990;2022-07-29T05:59:59;7.47;;;2.88;;
39490;SDS011;25175;50.140;18.990;2022-07-29T06:03:01;5.55;;;2.40;;
39490;SDS011;25175;50.140;18.990;2022-07-29T06:06:04;5.95;;;2.28;;
39490;SDS011;25175;50.140;18.990;2022-07-29T06:09:08;6.22;;;2.50;;
39490;SDS011;25175;50.140;18.990;2022-07-29T06:12:10;5.05;;;2.15;;
39490;SDS011;25175;50.140;18.990;2022-07-29T06:15:12;6.10;;;2.72;;
39490;SDS011;25175;50.140;18.990;2022-07-29T06:18:14;9.07;;;3.08;;
39490;SDS011;25175;50.140;18.990;2022-07-29T06:21:18;5.72;;;2.20;;
39490;SDS011;25175;50.140;18.990;2022-07-29T06:24:20;7.88;;;2.85;;
39490;SDS011;25175;50.140;18.990;2022-07-29T06:27:22;6.63;;;2.78;;
39490;SDS011;25175;50.140;18.990;2022-07-29T06:30:24;8.73;;;2.75;;
39490;SDS011;25175;50.140;18.990;2022-07-29T06:33:27;7.20;;;2.90;;
39490;SDS011;25175;50.140;18.990;2022-07-29T06:36:33;11.43;;;3.00;;
39490;SDS011;25175;50.140;18.990;2022-07-29T06:39:36;8.55;;;2.80;;
39490;SDS011;25175;50.140;18.990;2022-07-29T06:42:41;9.18;;;3.10;;
39490;SDS011;25175;50.140;18.990;2022-07-29T06:45:43;8.23;;;2.80;;
39490;SDS011;25175;50.140;18.990;2022-07-29T06:48:46;7.53;;;2.80;;
39490;SDS011;25175;50.140;18.990;2022-07-29T06:51:50;7.95;;;2.60;;
39490;SDS011;25175;50.140;18.990;2022-07-29T06:54:52;6.28;;;2.67;;
39490;SDS011;25175;50.140;18.990;2022-07-29T06:57:55;8.20;;;3.50;;
39490;SDS011;25175;50.140;18.990;2022-07-29T07:00:58;5.70;;;2.53;;
39490;SDS011;25175;50.140;18.990;2022-07-29T07:04:03;8.10;;;2.88;;
39490;SDS011;25175;50.140;18.990;2022-07-29T07:07:06;5.88;;;3.05;;
39490;SDS011;25175;50.140;18.990;2022-07-29T07:10:09;5.97;;;2.60;;
39490;SDS011;25175;50.140;18.990;2022-07-29T07:13:11;12.05;;;3.10;;
39490;SDS011;25175;50.140;18.990;2022-07-29T07:16:13;12.25;;;3.10;;
39490;SDS011;25175;50.140;18.990;2022-07-29T07:19:15;9.32;;;3.17;;
39490;SDS011;25175;50.140;18.990;2022-07-29T07:22:20;7.28;;;3.15;;
39490;SDS011;25175;50.140;18.990;2022-07-29T07:25:23;7.63;;;3.10;;
39490;SDS011;25175;50.140;18.990;2022-07-29T07:28:26;11.95;;;3.50;;
39490;SDS011;25175;50.140;18.990;2022-07-29T07:31:28;8.60;;;3.15;;
39490;SDS011;25175;50.140;18.990;2022-07-29T07:34:30;8.38;;;2.97;;
39490;SDS011;25175;50.140;18.990;2022-07-29T07:37:34;8.38;;;3.30;;
39490;SDS011;25175;50.140;18.990;2022-07-29T07:40:36;7.85;;;2.97;;
39490;SDS011;25175;50.140;18.990;2022-07-29T07:43:38;10.27;;;2.88;;
39490;SDS011;25175;50.140;18.990;2022-07-29T07:46:41;9.20;;;2.72;;
39490;SDS011;25175;50.140;18.990;2022-07-29T07:49:43;8.32;;;2.90;;
39490;SDS011;25175;50.140;18.990;2022-07-29T07:52:47;8.25;;;3.63;;
39490;SDS011;25175;50.140;18.990;2022-07-29T07:55:51;25.65;;;8.02;;
39490;SDS011;25175;50.140;18.990;2022-07-29T07:58:53;15.77;;;8.10;;
39490;SDS011;25175;50.140;18.990;2022-07-29T08:01:55;7.50;;;4.50;;
39490;SDS011;25175;50.140;18.990;2022-07-29T08:04:58;7.47;;;3.85;;
39490;SDS011;25175;50.140;18.990;2022-07-29T08:08:01;12.40;;;3.30;;
39490;SDS011;25175;50.140;18.990;2022-07-29T08:11:04;5.78;;;3.10;;
39490;SDS011;25175;50.140;18.990;2022-07-29T08:14:06;7.03;;;2.90;;
39490;SDS011;25175;50.140;18.990;2022-07-29T08:17:09;8.07;;;3.10;;
39490;SDS011;25175;50.140;18.990;2022-07-29T08:20:11;5.53;;;2.75;;
39490;SDS011;25175;50.140;18.990;2022-07-29T08:23:14;6.82;;;3.13;;
39490;SDS011;25175;50.140;18.990;2022-07-29T08:26:16;11.00;;;3.42;;
39490;SDS011;25175;50.140;18.990;2022-07-29T08:29:18;9.20;;;2.92;;
39490;SDS011;25175;50.140;18.990;2022-07-29T08:32:21;5.93;;;3.05;;
39490;SDS011;25175;50.140;18.990;2022-07-29T08:35:23;10.50;;;3.10;;
39490;SDS011;25175;50.140;18.990;2022-07-29T08:38:28;9.70;;;2.97;;
39490;SDS011;25175;50.140;18.990;2022-07-29T08:41:30;6.43;;;3.20;;
39490;SDS011;25175;50.140;18.990;2022-07-29T08:44:32;7.60;;;3.28;;
39490;SDS011;25175;50.140;18.990;2022-07-29T08:47:37;8.77;;;3.20;;
39490;SDS011;25175;50.140;18.990;2022-07-29T08:50:40;4.82;;;3.10;;
39490;SDS011;25175;50.140;18.990;2022-07-29T08:53:46;6.63;;;3.40;;
39490;SDS011;25175;50.140;18.990;2022-07-29T08:56:50;6.30;;;3.33;;
39490;SDS011;25175;50.140;18.990;2022-07-29T08:59:53;5.43;;;3.15;;
39490;SDS011;25175;50.140;18.990;2022-07-29T09:02:57;7.97;;;3.22;;
39490;SDS011;25175;50.140;18.990;2022-07-29T09:06:00;7.82;;;3.92;;
39490;SDS011;25175;50.140;18.990;2022-07-29T09:09:04;10.60;;;3.10;;
39490;SDS011;25175;50.140;18.990;2022-07-29T09:12:09;6.30;;;3.03;;
39490;SDS011;25175;50.140;18.990;2022-07-29T09:15:12;6.93;;;3.58;;
39490;SDS011;25175;50.140;18.990;2022-07-29T09:18:27;12.38;;;3.60;;
39490;SDS011;25175;50.140;18.990;2022-07-29T09:21:40;8.45;;;3.47;;
39490;SDS011;25175;50.140;18.990;2022-07-29T09:25:02;10.20;;;3.45;;
39490;SDS011;25175;50.140;18.990;2022-07-29T09:28:05;5.57;;;3.50;;
39490;SDS011;25175;50.140;18.990;2022-07-29T09:31:08;10.13;;;3.55;;
39490;SDS011;25175;50.140;18.990;2022-07-29T09:34:11;7.38;;;3.75;;
39490;SDS011;25175;50.140;18.990;2022-07-29T09:37:25;6.30;;;3.10;;
39490;SDS011;25175;50.140;18.990;2022-07-29T09:40:29;8.38;;;3.33;;
39490;SDS011;25175;50.140;18.990;2022-07-29T09:43:31;11.20;;;3.97;;
39490;SDS011;25175;50.140;18.990;2022-07-29T09:46:34;6.57;;;3.45;;
39490;SDS011;25175;50.140;18.990;2022-07-29T09:49:49;5.47;;;3.25;;
39490;SDS011;25175;50.140;18.990;2022-07-29T09:52:53;6.75;;;3.38;;
39490;SDS011;25175;50.140;18.990;2022-07-29T09:55:57;8.57;;;3.55;;
39490;SDS011;25175;50.140;18.990;2022-07-29T09:59:05;11.50;;;3.97;;
39490;SDS011;25175;50.140;18.990;2022-07-29T10:02:11;9.32;;;3.70;;
39490;SDS011;25175;50.140;18.990;2022-07-29T10:05:18;9.45;;;3.55;;
39490;SDS011;25175;50.140;18.990;2022-07-29T10:08:24;9.27;;;3.72;;
39490;SDS011;25175;50.140;18.990;2022-07-29T10:11:28;14.75;;;3.72;;
39490;SDS011;25175;50.140;18.990;2022-07-29T10:14:30;8.15;;;3.45;;
39490;SDS011;25175;50.140;18.990;2022-07-29T10:17:34;9.27;;;3.78;;
39490;SDS011;25175;50.140;18.990;2022-07-29T10:20:36;11.90;;;3.83;;
39490;SDS011;25175;50.140;18.990;2022-07-29T10:23:39;8.00;;;3.55;;
39490;SDS011;25175;50.140;18.990;2022-07-29T10:26:44;7.57;;;3.75;;
39490;SDS011;25175;50.140;18.990;2022-07-29T10:29:47;6.38;;;3.80;;
39490;SDS011;25175;50.140;18.990;2022-07-29T10:36:22;11.63;;;3.33;;
39490;SDS011;25175;50.140;18.990;2022-07-29T10:39:39;10.32;;;3.30;;
39490;SDS011;25175;50.140;18.990;2022-07-29T10:42:50;5.47;;;3.40;;
39490;SDS011;25175;50.140;18.990;2022-07-29T10:45:55;9.40;;;3.50;;
39490;SDS011;25175;50.140;18.990;2022-07-29T10:49:08;6.93;;;3.40;;
39490;SDS011;25175;50.140;18.990;2022-07-29T10:55:31;7.20;;;3.80;;
39490;SDS011;25175;50.140;18.990;2022-07-29T10:58:41;4.88;;;3.20;;
39490;SDS011;25175;50.140;18.990;2022-07-29T11:01:44;7.28;;;3.53;;
39490;SDS011;25175;50.140;18.990;2022-07-29T11:04:58;9.18;;;3.55;;
39490;SDS011;25175;50.140;18.990;2022-07-29T11:08:18;8.43;;;3.25;;
39490;SDS011;25175;50.140;18.990;2022-07-29T11:11:32;8.70;;;3.47;;
39490;SDS011;25175;50.140;18.990;2022-07-29T11:14:55;7.97;;;3.20;;
39490;SDS011;25175;50.140;18.990;2022-07-29T11:18:03;10.95;;;3.28;;
39490;SDS011;25175;50.140;18.990;2022-07-29T11:24:28;8.02;;;2.97;;
39490;SDS011;25175;50.140;18.990;2022-07-29T11:27:32;11.63;;;3.33;;
39490;SDS011;25175;50.140;18.990;2022-07-29T11:30:50;9.73;;;3.28;;
39490;SDS011;25175;50.140;18.990;2022-07-29T11:33:53;7.88;;;3.40;;
39490;SDS011;25175;50.140;18.990;2022-07-29T11:40:31;6.53;;;3.70;;
39490;SDS011;25175;50.140;18.990;2022-07-29T11:46:53;5.65;;;3.00;;
39490;SDS011;25175;50.140;18.990;2022-07-29T11:49:56;8.15;;;2.90;;
39490;SDS011;25175;50.140;18.990;2022-07-29T11:53:00;10.27;;;2.88;;
39490;SDS011;25175;50.140;18.990;2022-07-29T11:56:05;5.57;;;2.75;;
39490;SDS011;25175;50.140;18.990;2022-07-29T11:59:10;6.82;;;2.95;;
39490;SDS011;25175;50.140;18.990;2022-07-29T12:02:14;6.88;;;2.90;;
39490;SDS011;25175;50.140;18.990;2022-07-29T12:05:17;8.10;;;3.00;;
39490;SDS011;25175;50.140;18.990;2022-07-29T12:08:20;6.82;;;3.13;;
39490;SDS011;25175;50.140;18.990;2022-07-29T12:14:28;8.75;;;3.28;;
39490;SDS011;25175;50.140;18.990;2022-07-29T12:17:34;7.25;;;3.63;;
39490;SDS011;25175;50.140;18.990;2022-07-29T12:20:38;14.35;;;3.42;;
39490;SDS011;25175;50.140;18.990;2022-07-29T12:23:41;6.07;;;3.28;;
39490;SDS011;25175;50.140;18.990;2022-07-29T12:26:54;7.60;;;2.97;;
39490;SDS011;25175;50.140;18.990;2022-07-29T12:29:57;7.90;;;2.95;;
39490;SDS011;25175;50.140;18.990;2022-07-29T12:33:02;4.97;;;3.13;;
39490;SDS011;25175;50.140;18.990;2022-07-29T12:36:12;4.78;;;3.17;;
39490;SDS011;25175;50.140;18.990;2022-07-29T12:39:15;4.88;;;3.50;;
39490;SDS011;25175;50.140;18.990;2022-07-29T12:42:18;5.75;;;3.15;;
39490;SDS011;25175;50.140;18.990;2022-07-29T12:45:27;6.80;;;3.03;;
39490;SDS011;25175;50.140;18.990;2022-07-29T12:48:35;7.68;;;3.42;;
39490;SDS011;25175;50.140;18.990;2022-07-29T12:51:38;9.90;;;3.40;;
39490;SDS011;25175;50.140;18.990;2022-07-29T12:54:46;7.78;;;3.33;;
39490;SDS011;25175;50.140;18.990;2022-07-29T12:57:49;5.32;;;2.97;;
39490;SDS011;25175;50.140;18.990;2022-07-29T13:01:00;8.13;;;3.03;;
39490;SDS011;25175;50.140;18.990;2022-07-29T13:04:06;11.15;;;3.03;;
39490;SDS011;25175;50.140;18.990;2022-07-29T13:07:08;5.18;;;2.80;;
39490;SDS011;25175;50.140;18.990;2022-07-29T13:10:13;7.95;;;2.78;;
39490;SDS011;25175;50.140;18.990;2022-07-29T13:13:17;9.93;;;2.90;;
39490;SDS011;25175;50.140;18.990;2022-07-29T13:16:19;5.30;;;3.05;;
39490;SDS011;25175;50.140;18.990;2022-07-29T13:19:31;5.63;;;3.40;;
39490;SDS011;25175;50.140;18.990;2022-07-29T13:22:35;6.60;;;3.00;;
39490;SDS011;25175;50.140;18.990;2022-07-29T13:25:37;5.80;;;2.90;;
39490;SDS011;25175;50.140;18.990;2022-07-29T13:28:41;6.72;;;3.40;;
39490;SDS011;25175;50.140;18.990;2022-07-29T13:31:43;10.45;;;2.97;;
39490;SDS011;25175;50.140;18.990;2022-07-29T13:34:47;5.65;;;2.80;;
39490;SDS011;25175;50.140;18.990;2022-07-29T13:37:49;5.57;;;2.80;;
39490;SDS011;25175;50.140;18.990;2022-07-29T13:40:52;4.60;;;2.95;;
39490;SDS011;25175;50.140;18.990;2022-07-29T13:43:55;5.95;;;2.80;;
39490;SDS011;25175;50.140;18.990;2022-07-29T13:46:57;6.85;;;3.20;;
39490;SDS011;25175;50.140;18.990;2022-07-29T13:50:01;9.05;;;2.75;;
39490;SDS011;25175;50.140;18.990;2022-07-29T13:53:05;7.00;;;2.85;;
39490;SDS011;25175;50.140;18.990;2022-07-29T13:56:07;11.50;;;2.88;;
39490;SDS011;25175;50.140;18.990;2022-07-29T13:59:09;6.40;;;3.20;;
39490;SDS011;25175;50.140;18.990;2022-07-29T14:02:11;5.50;;;2.92;;
39490;SDS011;25175;50.140;18.990;2022-07-29T14:05:15;9.23;;;3.03;;
39490;SDS011;25175;50.140;18.990;2022-07-29T14:08:17;6.72;;;2.90;;
39490;SDS011;25175;50.140;18.990;2022-07-29T14:11:19;7.55;;;2.97;;
39490;SDS011;25175;50.140;18.990;2022-07-29T14:14:22;10.25;;;3.00;;
39490;SDS011;25175;50.140;18.990;2022-07-29T14:17:24;9.85;;;3.10;;
39490;SDS011;25175;50.140;18.990;2022-07-29T14:20:28;3.53;;;2.60;;
39490;SDS011;25175;50.140;18.990;2022-07-29T14:23:31;6.55;;;2.70;;
39490;SDS011;25175;50.140;18.990;2022-07-29T14:26:33;5.45;;;2.78;;
39490;SDS011;25175;50.140;18.990;2022-07-29T14:29:35;5.18;;;2.67;;
39490;SDS011;25175;50.140;18.990;2022-07-29T14:32:39;5.13;;;2.70;;
39490;SDS011;25175;50.140;18.990;2022-07-29T14:35:42;6.18;;;2.72;;
39490;SDS011;25175;50.140;18.990;2022-07-29T14:38:46;8.15;;;3.10;;
39490;SDS011;25175;50.140;18.990;2022-07-29T14:41:48;5.72;;;2.90;;
39490;SDS011;25175;50.140;18.990;2022-07-29T14:44:51;5.28;;;3.10;;
39490;SDS011;25175;50.140;18.990;2022-07-29T14:47:53;5.85;;;2.80;;
39490;SDS011;25175;50.140;18.990;2022-07-29T14:50:57;5.63;;;2.83;;
39490;SDS011;25175;50.140;18.990;2022-07-29T14:53:59;6.00;;;2.47;;
39490;SDS011;25175;50.140;18.990;2022-07-29T14:57:01;5.95;;;2.90;;
39490;SDS011;25175;50.140;18.990;2022-07-29T15:00:04;6.93;;;2.80;;
39490;SDS011;25175;50.140;18.990;2022-07-29T15:03:07;14.27;;;3.53;;
39490;SDS011;25175;50.140;18.990;2022-07-29T15:06:12;9.18;;;3.53;;
39490;SDS011;25175;50.140;18.990;2022-07-29T15:09:14;5.32;;;2.80;;
39490;SDS011;25175;50.140;18.990;2022-07-29T15:12:16;4.60;;;3.20;;
39490;SDS011;25175;50.140;18.990;2022-07-29T15:15:18;5.55;;;3.08;;
39490;SDS011;25175;50.140;18.990;2022-07-29T15:18:21;5.28;;;3.05;;
39490;SDS011;25175;50.140;18.990;2022-07-29T15:21:25;4.40;;;2.90;;
39490;SDS011;25175;50.140;18.990;2022-07-29T15:24:30;4.15;;;3.25;;
39490;SDS011;25175;50.140;18.990;2022-07-29T15:27:32;5.53;;;2.90;;
39490;SDS011;25175;50.140;18.990;2022-07-29T15:30:35;6.00;;;2.55;;
39490;SDS011;25175;50.140;18.990;2022-07-29T15:33:41;4.28;;;2.97;;
39490;SDS011;25175;50.140;18.990;2022-07-29T15:36:44;5.72;;;2.80;;
39490;SDS011;25175;50.140;18.990;2022-07-29T15:39:47;8.88;;;3.22;;
39490;SDS011;25175;50.140;18.990;2022-07-29T15:42:49;5.55;;;3.20;;
39490;SDS011;25175;50.140;18.990;2022-07-29T15:45:52;9.50;;;3.50;;
39490;SDS011;25175;50.140;18.990;2022-07-29T15:49:11;9.43;;;3.38;;
39490;SDS011;25175;50.140;18.990;2022-07-29T15:52:15;8.15;;;3.60;;
39490;SDS011;25175;50.140;18.990;2022-07-29T15:55:19;6.77;;;3.07;;
39490;SDS011;25175;50.140;18.990;2022-07-29T15:58:21;6.30;;;3.17;;
39490;SDS011;25175;50.140;18.990;2022-07-29T16:01:23;7.30;;;3.17;;
39490;SDS011;25175;50.140;18.990;2022-07-29T16:04:26;6.78;;;3.47;;
39490;SDS011;25175;50.140;18.990;2022-07-29T16:07:29;10.00;;;3.50;;
39490;SDS011;25175;50.140;18.990;2022-07-29T16:10:33;9.27;;;3.50;;
39490;SDS011;25175;50.140;18.990;2022-07-29T16:13:36;8.20;;;3.65;;
39490;SDS011;25175;50.140;18.990;2022-07-29T16:16:38;7.32;;;3.55;;
39490;SDS011;25175;50.140;18.990;2022-07-29T16:19:41;10.40;;;3.53;;
39490;SDS011;25175;50.140;18.990;2022-07-29T16:22:45;9.30;;;3.70;;
39490;SDS011;25175;50.140;18.990;2022-07-29T16:25:47;4.82;;;3.45;;
39490;SDS011;25175;50.140;18.990;2022-07-29T16:28:49;9.23;;;4.10;;
39490;SDS011;25175;50.140;18.990;2022-07-29T16:31:51;12.65;;;4.28;;
39490;SDS011;25175;50.140;18.990;2022-07-29T16:34:53;7.45;;;4.43;;
39490;SDS011;25175;50.140;18.990;2022-07-29T16:37:57;15.80;;;4.30;;
39490;SDS011;25175;50.140;18.990;2022-07-29T16:40:59;11.15;;;4.10;;
39490;SDS011;25175;50.140;18.990;2022-07-29T16:44:01;8.93;;;4.28;;
39490;SDS011;25175;50.140;18.990;2022-07-29T16:47:03;7.60;;;4.05;;
39490;SDS011;25175;50.140;18.990;2022-07-29T16:50:06;6.82;;;4.53;;
39490;SDS011;25175;50.140;18.990;2022-07-29T16:53:10;9.20;;;4.55;;
39490;SDS011;25175;50.140;18.990;2022-07-29T16:56:12;7.68;;;4.35;;
39490;SDS011;25175;50.140;18.990;2022-07-29T16:59:15;6.38;;;4.20;;
39490;SDS011;25175;50.140;18.990;2022-07-29T17:02:17;9.25;;;4.20;;
39490;SDS011;25175;50.140;18.990;2022-07-29T17:05:19;9.15;;;4.47;;
39490;SDS011;25175;50.140;18.990;2022-07-29T17:08:23;9.00;;;4.57;;
39490;SDS011;25175;50.140;18.990;2022-07-29T17:11:25;6.57;;;4.57;;
39490;SDS011;25175;50.140;18.990;2022-07-29T17:14:28;7.75;;;4.78;;
39490;SDS011;25175;50.140;18.990;2022-07-29T17:17:31;7.97;;;4.43;;
39490;SDS011;25175;50.140;18.990;2022-07-29T17:20:34;11.20;;;4.50;;
39490;SDS011;25175;50.140;18.990;2022-07-29T17:23:37;7.15;;;4.88;;
39490;SDS011;25175;50.140;18.990;2022-07-29T17:26:39;12.68;;;5.07;;
39490;SDS011;25175;50.140;18.990;2022-07-29T17:29:43;10.32;;;5.05;;
39490;SDS011;25175;50.140;18.990;2022-07-29T17:32:46;9.18;;;5.07;;
39490;SDS011;25175;50.140;18.990;2022-07-29T17:35:49;10.05;;;5.03;;
39490;SDS011;25175;50.140;18.990;2022-07-29T17:39:10;11.02;;;5.13;;
39490;SDS011;25175;50.140;18.990;2022-07-29T17:42:12;8.48;;;4.97;;
39490;SDS011;25175;50.140;18.990;2022-07-29T17:45:15;13.27;;;5.32;;
39490;SDS011;25175;50.140;18.990;2022-07-29T17:48:17;10.02;;;6.07;;
39490;SDS011;25175;50.140;18.990;2022-07-29T17:51:20;11.85;;;5.82;;
39490;SDS011;25175;50.140;18.990;2022-07-29T17:54:23;11.20;;;6.07;;
39490;SDS011;25175;50.140;18.990;2022-07-29T17:57:25;20.10;;;5.60;;
39490;SDS011;25175;50.140;18.990;2022-07-29T18:00:28;11.55;;;5.28;;
39490;SDS011;25175;50.140;18.990;2022-07-29T18:03:30;11.65;;;5.78;;
39490;SDS011;25175;50.140;18.990;2022-07-29T18:06:32;10.73;;;6.53;;
39490;SDS011;25175;50.140;18.990;2022-07-29T18:09:36;11.13;;;6.40;;
39490;SDS011;25175;50.140;18.990;2022-07-29T18:12:38;12.38;;;6.07;;
39490;SDS011;25175;50.140;18.990;2022-07-29T18:15:40;11.50;;;5.78;;
39490;SDS011;25175;50.140;18.990;2022-07-29T18:18:42;7.70;;;5.35;;
39490;SDS011;25175;50.140;18.990;2022-07-29T18:21:45;7.55;;;5.25;;
39490;SDS011;25175;50.140;18.990;2022-07-29T18:24:49;13.90;;;5.53;;
39490;SDS011;25175;50.140;18.990;2022-07-29T18:27:51;9.52;;;5.93;;